Time;durP1;ratioP1;P1;durP2;ratioP2;P2;SDS_P1;SDS_P2;PMS_P1;PMS_P2;Temp;Humidity;BMP_temperature;BMP_pressure;BME280_temperature;BME280_humidity;BME280_pressure;Samples;Min_cycle;Max_cycle;Signal;HPM_P1;HPM_P2
2023/12/22 00:02:01;;;;;;;0.85;0.20;;;8.30;78.20;;;;;;5133948;28;20984;-56
2023/12/22 00:04:28;;;;;;;0.40;0.20;;;8.20;84.00;;;;;;5134006;28;20415;-58
2023/12/22 00:06:55;;;;;;;0.50;0.20;;;8.10;93.60;;;;;;5133535;28;20418;-58
2023/12/22 00:09:22;;;;;;;0.50;0.20;;;8.10;99.90;;;;;;5133093;28;20414;-55
2023/12/22 00:11:50;;;;;;;0.50;0.20;;;8.20;99.90;;;;;;5134067;28;20418;-58
2023/12/22 00:14:18;;;;;;;1.05;0.20;;;8.30;99.90;;;;;;5133493;28;20926;-57
2023/12/22 00:16:45;;;;;;;0.50;0.30;;;8.30;99.90;;;;;;5132272;28;20433;-58
2023/12/22 00:19:12;;;;;;;0.70;0.20;;;8.40;99.90;;;;;;5133940;27;20434;-58
2023/12/22 00:21:39;;;;;;;1.70;0.30;;;8.50;99.90;;;;;;5133876;28;20793;-56
2023/12/22 00:24:06;;;;;;;2.90;0.30;;;8.50;99.90;;;;;;5131792;27;20829;-58
2023/12/22 00:26:33;;;;;;;0.82;0.30;;;8.50;99.90;;;;;;5124683;28;20501;-58
2023/12/22 00:29:02;;;;;;;0.65;0.30;;;8.50;99.90;;;;;;5132963;28;20428;-58
2023/12/22 00:31:29;;;;;;;0.90;0.30;;;8.50;99.90;;;;;;5132566;28;20426;-58
2023/12/22 00:33:56;;;;;;;0.60;0.30;;;8.60;99.90;;;;;;5133792;28;20854;-58
2023/12/22 00:36:24;;;;;;;1.80;0.30;;;8.60;75.10;;;;;;5133213;28;20520;-58
2023/12/22 00:38:51;;;;;;;1.10;0.30;;;8.60;74.50;;;;;;5132171;28;20421;-58
2023/12/22 00:41:19;;;;;;;1.00;0.20;;;8.70;43.00;;;;;;5130450;28;20494;-55
2023/12/22 00:43:46;;;;;;;1.10;0.30;;;8.70;46.00;;;;;;5135019;27;20417;-57
2023/12/22 00:46:14;;;;;;;0.60;0.30;;;8.70;41.20;;;;;;5137324;27;20430;-56
2023/12/22 00:48:41;;;;;;;1.08;0.30;;;8.60;72.60;;;;;;5136585;27;20422;-56
2023/12/22 00:51:09;;;;;;;0.82;0.20;;;8.50;99.90;;;;;;5135582;27;20426;-56
2023/12/22 00:53:36;;;;;;;1.30;0.25;;;8.40;99.90;;;;;;5136697;27;20427;-56
2023/12/22 00:56:04;;;;;;;1.20;0.20;;;8.30;99.90;;;;;;5134907;27;20975;-57
2023/12/22 00:58:31;;;;;;;0.50;0.20;;;8.20;99.90;;;;;;5135063;27;20418;-55
2023/12/22 01:00:58;;;;;;;0.55;0.20;;;8.20;99.90;;;;;;5137222;27;20764;-57
2023/12/22 01:03:27;;;;;;;1.10;0.30;;;8.20;99.90;;;;;;5135812;27;20857;-57
2023/12/22 01:05:54;;;;;;;0.65;0.25;;;8.20;99.90;;;;;;5136575;27;20701;-59
2023/12/22 01:08:21;;;;;;;0.50;0.20;;;8.20;99.90;;;;;;5120548;27;20995;-59
2023/12/22 01:10:48;;;;;;;0.90;0.30;;;8.10;99.90;;;;;;5117596;28;20424;-56
2023/12/22 01:13:16;;;;;;;0.40;0.20;;;8.10;99.90;;;;;;5116894;28;20493;-58
2023/12/22 01:15:43;;;;;;;0.70;0.20;;;8.10;99.90;;;;;;5128956;27;20438;-60
2023/12/22 01:18:11;;;;;;;1.80;0.40;;;8.20;99.90;;;;;;5134764;27;20461;-58
2023/12/22 01:20:39;;;;;;;1.73;0.20;;;8.20;99.90;;;;;;5136178;27;20470;-57
2023/12/22 01:23:06;;;;;;;1.10;0.30;;;8.30;99.90;;;;;;5132500;27;20438;-56
2023/12/22 01:25:33;;;;;;;1.10;0.20;;;8.20;76.90;;;;;;5135283;27;20438;-55
2023/12/22 01:28:00;;;;;;;0.80;0.30;;;8.30;84.00;;;;;;5134702;27;20453;-56
2023/12/22 01:30:27;;;;;;;1.35;0.30;;;8.30;83.30;;;;;;5136680;27;20540;-54
2023/12/22 01:32:54;;;;;;;0.63;0.28;;;8.30;15.80;;;;;;5132603;27;20424;-53
2023/12/22 01:35:21;;;;;;;0.75;0.30;;;8.20;33.80;;;;;;5135615;27;20415;-54
2023/12/22 01:37:51;;;;;;;0.90;0.20;;;8.30;36.90;;;;;;5133162;27;20483;-55
2023/12/22 01:40:18;;;;;;;1.08;0.20;;;8.30;14.90;;;;;;5137633;27;20506;-56
2023/12/22 01:42:45;;;;;;;2.08;0.30;;;8.30;1.00;;;;;;5136514;27;20479;-57
2023/12/22 01:45:12;;;;;;;1.60;0.20;;;8.30;1.00;;;;;;5132409;27;20423;-57
2023/12/22 01:47:40;;;;;;;1.30;0.20;;;8.30;1.00;;;;;;5135469;27;20418;-57
2023/12/22 01:50:10;;;;;;;0.40;0.20;;;8.30;1.00;;;;;;5135001;27;20425;-57
2023/12/22 01:52:37;;;;;;;0.40;0.20;;;8.30;1.00;;;;;;5131015;27;20497;-56
2023/12/22 01:55:07;;;;;;;0.40;0.20;;;8.40;1.00;;;;;;5116554;27;20435;-58
2023/12/22 01:57:35;;;;;;;0.50;0.20;;;8.40;1.00;;;;;;5116134;28;20427;-55
2023/12/22 02:00:03;;;;;;;0.98;0.15;;;8.40;1.00;;;;;;5126305;27;20497;-54
2023/12/22 02:02:32;;;;;;;0.60;0.20;;;8.30;1.00;;;;;;5126295;27;20438;-56
2023/12/22 02:05:01;;;;;;;1.20;0.13;;;8.30;1.00;;;;;;5136772;27;20509;-52
2023/12/22 02:07:29;;;;;;;0.38;0.10;;;8.30;1.00;;;;;;5135989;27;20421;-56
2023/12/22 02:09:55;;;;;;;0.40;0.10;;;8.40;1.00;;;;;;5135532;27;20418;-54
2023/12/22 02:12:24;;;;;;;0.40;0.10;;;8.30;1.00;;;;;;5134710;27;20422;-53
2023/12/22 02:14:51;;;;;;;1.20;0.10;;;8.30;1.00;;;;;;5133642;27;20480;-55
2023/12/22 02:17:25;;;;;;;0.40;0.17;;;8.30;1.00;;;;;;5134891;27;20419;-55
2023/12/22 02:19:53;;;;;;;0.43;0.10;;;8.30;1.00;;;;;;5132713;27;20506;-56
2023/12/22 02:22:20;;;;;;;0.52;0.20;;;8.30;1.00;;;;;;5135648;27;20741;-55
2023/12/22 02:24:48;;;;;;;0.40;0.10;;;8.20;1.00;;;;;;5134684;27;20414;-56
2023/12/22 02:27:32;;;;;;;0.60;0.10;;;8.10;1.00;;;;;;5135544;27;20640;-56
2023/12/22 02:30:03;;;;;;;0.32;0.10;;;8.10;1.00;;;;;;5133911;27;20418;-55
2023/12/22 02:32:35;;;;;;;0.40;0.10;;;8.20;1.00;;;;;;5135693;27;20601;-56
2023/12/22 02:35:07;;;;;;;0.55;0.20;;;8.20;1.00;;;;;;5134946;27;20498;-56
2023/12/22 02:37:41;;;;;;;0.40;0.10;;;8.20;1.00;;;;;;5132062;27;20507;-55
2023/12/22 02:40:11;;;;;;;0.35;0.20;;;8.30;1.00;;;;;;5134325;27;20732;-56
2023/12/22 02:42:39;;;;;;;0.80;0.20;;;8.30;1.00;;;;;;5135601;27;20418;-54
2023/12/22 02:45:07;;;;;;;0.50;0.20;;;8.30;99.90;;;;;;5135217;27;20415;-56
2023/12/22 02:47:34;;;;;;;0.50;0.20;;;8.30;1.00;;;;;;5135163;27;20410;-56
2023/12/22 02:50:01;;;;;;;0.47;0.20;;;8.30;1.00;;;;;;5134475;27;20426;-55
2023/12/22 02:52:28;;;;;;;1.10;0.20;;;8.30;99.90;;;;;;5132585;27;20433;-54
2023/12/22 02:54:56;;;;;;;0.70;0.20;;;8.40;1.00;;;;;;5132385;27;20445;-55
2023/12/22 02:57:24;;;;;;;0.50;0.20;;;8.40;99.90;;;;;;5134242;27;20411;-55
2023/12/22 02:59:51;;;;;;;0.60;0.10;;;8.40;99.90;;;;;;5133531;27;20499;-55
2023/12/22 03:02:18;;;;;;;0.47;0.20;;;8.40;99.90;;;;;;5133985;27;20848;-55
2023/12/22 03:04:47;;;;;;;0.90;0.20;;;8.50;99.90;;;;;;5132923;27;20418;-55
2023/12/22 03:07:14;;;;;;;0.50;0.20;;;8.50;99.90;;;;;;5133204;27;20454;-56
2023/12/22 03:09:41;;;;;;;0.68;0.20;;;8.50;1.00;;;;;;5132210;27;20845;-57
2023/12/22 03:12:08;;;;;;;1.17;0.20;;;8.50;1.00;;;;;;5131512;27;20418;-56
2023/12/22 03:14:41;;;;;;;1.00;0.20;;;8.40;1.00;;;;;;5131195;27;21088;-57
2023/12/22 03:17:09;;;;;;;0.65;0.20;;;8.40;39.90;;;;;;5131422;27;20853;-56
2023/12/22 03:19:36;;;;;;;1.17;0.20;;;8.50;1.00;;;;;;5129335;27;20426;-57
2023/12/22 03:22:04;;;;;;;0.57;0.20;;;8.40;99.90;;;;;;5131427;27;20502;-57
2023/12/22 03:24:31;;;;;;;0.80;0.20;;;8.40;99.90;;;;;;5133201;27;21052;-58
2023/12/22 03:27:00;;;;;;;0.73;0.20;;;8.40;20.60;;;;;;5134199;27;20414;-57
2023/12/22 03:29:27;;;;;;;0.40;0.20;;;8.40;1.00;;;;;;5134529;27;20414;-56
2023/12/22 03:31:55;;;;;;;0.40;0.10;;;8.50;1.00;;;;;;5133931;27;20418;-54
2023/12/22 03:34:22;;;;;;;0.55;0.20;;;8.50;11.90;;;;;;5131490;27;20427;-53
2023/12/22 03:36:49;;;;;;;0.63;0.20;;;8.70;1.00;;;;;;5132130;27;20440;-55
2023/12/22 03:39:16;;;;;;;1.20;0.20;;;8.60;99.90;;;;;;5130878;27;20437;-57
2023/12/22 03:41:43;;;;;;;0.60;0.20;;;8.70;99.90;;;;;;5134433;27;20913;-55
2023/12/22 03:44:11;;;;;;;0.90;0.20;;;8.60;99.90;;;;;;5134270;27;20418;-59
2023/12/22 03:46:38;;;;;;;0.70;0.10;;;8.60;1.00;;;;;;5134218;27;20425;-57
2023/12/22 03:49:06;;;;;;;1.20;0.20;;;8.70;68.90;;;;;;5134050;27;20419;-57
2023/12/22 03:51:33;;;;;;;0.82;0.20;;;8.60;99.90;;;;;;5134824;27;20838;-57
2023/12/22 03:54:00;;;;;;;0.70;0.20;;;8.60;1.00;;;;;;5131573;28;20853;-57
2023/12/22 03:56:27;;;;;;;0.65;0.20;;;8.60;1.00;;;;;;5133790;28;20497;-55
2023/12/22 03:58:54;;;;;;;1.50;0.20;;;8.60;99.90;;;;;;5133821;28;20422;-59
2023/12/22 04:01:21;;;;;;;0.57;0.20;;;8.50;1.00;;;;;;5131737;28;20430;-57
2023/12/22 04:03:48;;;;;;;0.90;0.20;;;8.50;1.00;;;;;;5133714;28;20448;-57
2023/12/22 04:06:17;;;;;;;1.10;0.20;;;8.40;1.00;;;;;;5133619;28;20435;-57
2023/12/22 04:08:44;;;;;;;0.50;0.20;;;8.30;1.00;;;;;;5133903;28;20418;-58
2023/12/22 04:11:11;;;;;;;0.70;0.20;;;8.20;1.00;;;;;;5133700;28;20462;-57
2023/12/22 04:13:38;;;;;;;0.50;0.20;;;8.10;1.00;;;;;;5134462;28;20414;-58
2023/12/22 04:16:06;;;;;;;1.80;0.20;;;8.10;1.00;;;;;;5132985;28;20932;-58
2023/12/22 04:18:33;;;;;;;0.43;0.20;;;8.00;1.00;;;;;;5133805;27;20422;-58
2023/12/22 04:21:00;;;;;;;0.50;0.20;;;8.10;1.00;;;;;;5136374;27;20414;-54
2023/12/22 04:23:28;;;;;;;1.88;0.20;;;8.00;1.00;;;;;;5131246;27;20465;-57
2023/12/22 04:25:56;;;;;;;2.00;0.30;;;7.90;20.30;;;;;;5133653;27;20491;-57
2023/12/22 04:28:23;;;;;;;1.48;0.28;;;7.80;37.80;;;;;;5133699;27;20414;-58
2023/12/22 04:30:50;;;;;;;0.60;0.20;;;7.80;28.50;;;;;;5136044;27;20966;-56
2023/12/22 04:33:17;;;;;;;0.80;0.20;;;7.80;18.60;;;;;;5134418;27;20461;-58
2023/12/22 04:35:44;;;;;;;2.08;0.20;;;7.70;24.70;;;;;;5136363;27;20430;-58
2023/12/22 04:38:11;;;;;;;0.50;0.20;;;7.80;27.10;;;;;;5135563;27;20418;-58
2023/12/22 04:40:39;;;;;;;0.50;0.20;;;7.80;12.00;;;;;;5135420;27;20475;-58
2023/12/22 04:43:06;;;;;;;1.40;0.20;;;7.80;1.00;;;;;;5135361;27;20434;-58
2023/12/22 04:45:33;;;;;;;0.40;0.20;;;7.90;1.00;;;;;;5133993;27;20438;-58
2023/12/22 04:48:00;;;;;;;1.80;0.20;;;8.00;1.00;;;;;;5137167;27;20476;-58
2023/12/22 04:50:27;;;;;;;0.90;0.10;;;8.00;1.00;;;;;;5138075;27;20475;-58
2023/12/22 04:52:54;;;;;;;0.45;0.20;;;8.00;1.00;;;;;;5132513;27;20521;-58
2023/12/22 04:55:22;;;;;;;1.67;0.20;;;8.10;1.00;;;;;;5117340;28;20708;-59
2023/12/22 04:57:50;;;;;;;0.50;0.40;;;8.30;1.00;;;;;;5116096;27;20428;-59
2023/12/22 05:00:17;;;;;;;1.30;0.20;;;8.30;1.00;;;;;;5129867;27;20423;-59
2023/12/22 05:02:44;;;;;;;1.20;0.20;;;8.30;1.00;;;;;;5130316;27;20905;-59
2023/12/22 05:05:12;;;;;;;0.30;0.10;;;8.30;1.00;;;;;;5138439;27;20426;-59
2023/12/22 05:07:40;;;;;;;0.50;0.20;;;8.30;1.00;;;;;;5137614;27;20429;-54
2023/12/22 05:10:08;;;;;;;1.07;0.20;;;8.30;99.90;;;;;;5137884;27;20461;-58
2023/12/22 05:12:35;;;;;;;1.60;0.28;;;8.50;1.00;;;;;;5137977;27;20800;-57
2023/12/22 05:15:04;;;;;;;1.60;0.30;;;8.50;99.90;;;;;;5137140;27;20904;-57
2023/12/22 05:17:32;;;;;;;3.60;0.30;;;8.40;99.90;;;;;;5137429;27;20879;-57
2023/12/22 05:19:59;;;;;;;0.70;0.20;;;8.40;99.90;;;;;;5137134;27;20450;-58
2023/12/22 05:22:29;;;;;;;1.80;0.20;;;8.40;99.90;;;;;;5136887;27;20467;-58
2023/12/22 05:24:56;;;;;;;0.60;0.20;;;8.60;99.90;;;;;;5136916;27;20419;-58
2023/12/22 05:27:24;;;;;;;1.23;0.30;;;8.50;99.90;;;;;;5137321;27;20498;-59
2023/12/22 05:29:51;;;;;;;1.30;0.20;;;8.50;99.90;;;;;;5134168;27;20422;-58
2023/12/22 05:32:19;;;;;;;2.03;0.30;;;8.40;99.90;;;;;;5135991;27;20414;-58
2023/12/22 05:34:46;;;;;;;2.30;0.30;;;8.40;99.90;;;;;;5136549;27;20430;-59
2023/12/22 05:37:13;;;;;;;1.60;0.30;;;8.40;99.90;;;;;;5135909;27;20779;-58
2023/12/22 05:39:40;;;;;;;3.57;0.30;;;8.40;1.00;;;;;;5125394;27;20898;-59
2023/12/22 05:42:08;;;;;;;1.60;0.20;;;8.40;1.00;;;;;;5115246;28;20408;-59
2023/12/22 05:44:34;;;;;;;0.90;0.30;;;8.30;1.00;;;;;;5127498;27;20497;-59
2023/12/22 05:47:01;;;;;;;0.98;0.30;;;8.30;1.00;;;;;;5120694;27;20423;-59
2023/12/22 05:49:30;;;;;;;2.65;0.30;;;8.30;1.00;;;;;;5133029;27;20438;-59
2023/12/22 05:51:57;;;;;;;0.60;0.40;;;8.40;1.00;;;;;;5135648;27;20440;-58
2023/12/22 05:54:25;;;;;;;2.63;0.30;;;8.40;1.00;;;;;;5133575;27;20426;-59
2023/12/22 05:56:52;;;;;;;1.10;0.30;;;8.30;99.90;;;;;;5135153;27;20491;-59
2023/12/22 05:59:19;;;;;;;1.13;0.30;;;8.40;99.90;;;;;;5120975;27;20852;-58
2023/12/22 06:01:46;;;;;;;0.55;0.30;;;8.40;99.90;;;;;;5134675;27;20495;-59
2023/12/22 06:04:14;;;;;;;1.02;0.30;;;8.50;99.90;;;;;;5136099;27;20961;-59
2023/12/22 06:06:42;;;;;;;1.40;0.40;;;8.40;1.00;;;;;;5136430;27;20422;-59
2023/12/22 06:09:12;;;;;;;0.80;0.30;;;8.50;99.90;;;;;;5131155;27;20487;-58
2023/12/22 06:11:39;;;;;;;2.10;0.30;;;8.50;1.00;;;;;;5126644;27;20437;-59
2023/12/22 06:14:06;;;;;;;1.00;0.30;;;8.60;1.00;;;;;;5135343;27;20426;-59
2023/12/22 06:16:33;;;;;;;1.20;0.20;;;8.70;99.90;;;;;;5131987;27;20418;-59
2023/12/22 06:19:01;;;;;;;0.90;0.20;;;8.60;99.90;;;;;;5133896;27;20432;-59
2023/12/22 06:21:28;;;;;;;0.80;0.20;;;8.60;99.90;;;;;;5130910;27;20434;-58
2023/12/22 06:23:56;;;;;;;0.70;0.20;;;8.70;99.90;;;;;;5132720;27;21007;-58
2023/12/22 06:26:24;;;;;;;1.17;0.30;;;8.70;1.00;;;;;;5132430;27;20407;-58
2023/12/22 06:28:51;;;;;;;1.25;0.40;;;8.70;99.90;;;;;;5133286;27;20924;-58
2023/12/22 06:31:19;;;;;;;1.70;0.20;;;8.60;1.00;;;;;;5133571;27;20426;-58
2023/12/22 06:33:47;;;;;;;1.00;0.30;;;8.60;1.00;;;;;;5132435;27;20756;-59
2023/12/22 06:36:20;;;;;;;0.70;0.30;;;8.60;1.00;;;;;;5130330;27;20479;-59
2023/12/22 06:38:47;;;;;;;0.57;0.30;;;8.70;1.00;;;;;;5131476;27;20422;-59
2023/12/22 06:41:21;;;;;;;1.80;0.30;;;8.70;1.00;;;;;;5134804;27;20872;-59
2023/12/22 06:43:48;;;;;;;1.10;0.30;;;8.70;1.00;;;;;;5136410;27;20437;-59
2023/12/22 06:46:18;;;;;;;2.08;0.40;;;8.70;99.90;;;;;;5127192;27;21118;-59
2023/12/22 06:48:46;;;;;;;2.50;0.30;;;8.70;1.00;;;;;;5132360;27;20438;-59
2023/12/22 06:51:20;;;;;;;2.60;0.30;;;8.70;1.00;;;;;;5136473;27;20431;-59
2023/12/22 06:53:47;;;;;;;2.30;0.47;;;8.70;1.00;;;;;;5136195;27;20458;-59
2023/12/22 06:56:20;;;;;;;1.80;0.30;;;8.70;99.90;;;;;;5135219;27;20483;-60
2023/12/22 06:58:48;;;;;;;0.60;0.20;;;8.70;1.00;;;;;;5129006;27;20438;-59
2023/12/22 07:01:20;;;;;;;1.20;0.30;;;8.70;1.00;;;;;;5134644;27;20434;-59
2023/12/22 07:03:49;;;;;;;1.20;0.30;;;8.80;99.90;;;;;;5134236;27;20422;-58
2023/12/22 07:06:16;;;;;;;0.70;0.20;;;8.70;1.00;;;;;;5126647;27;20966;-58
2023/12/22 07:09:02;;;;;;;1.10;0.20;;;8.70;1.00;;;;;;5133692;27;20422;-58
2023/12/22 07:11:31;;;;;;;1.70;0.20;;;8.80;1.00;;;;;;5129249;27;20845;-59
2023/12/22 07:13:58;;;;;;;1.63;0.20;;;8.80;1.00;;;;;;5135925;27;20509;-59
2023/12/22 07:16:26;;;;;;;0.73;0.30;;;8.70;1.00;;;;;;5135657;27;20436;-58
2023/12/22 07:18:53;;;;;;;1.17;0.30;;;8.70;99.90;;;;;;5134952;27;20427;-59
2023/12/22 07:21:22;;;;;;;1.50;0.30;;;8.70;99.90;;;;;;5132262;27;21907;-59
2023/12/22 07:23:49;;;;;;;0.70;0.30;;;8.70;1.00;;;;;;5133260;27;20418;-59
2023/12/22 07:26:16;;;;;;;0.60;0.20;;;8.70;1.00;;;;;;5132819;27;20440;-59
2023/12/22 07:28:45;;;;;;;1.50;0.30;;;8.70;1.00;;;;;;5131744;27;20426;-59
2023/12/22 07:31:12;;;;;;;0.70;0.28;;;8.60;1.00;;;;;;5133754;27;20438;-59
2023/12/22 07:33:40;;;;;;;0.85;0.30;;;8.60;1.00;;;;;;5133928;27;20423;-58
2023/12/22 07:36:08;;;;;;;1.30;0.20;;;8.50;1.00;;;;;;5134321;27;20422;-58
2023/12/22 07:38:35;;;;;;;1.55;0.20;;;8.50;1.00;;;;;;5134339;27;20454;-59
2023/12/22 07:41:02;;;;;;;1.10;0.20;;;8.50;1.00;;;;;;5134932;27;20449;-60
2023/12/22 07:43:30;;;;;;;1.60;0.30;;;8.50;1.00;;;;;;5133820;27;20449;-59
2023/12/22 07:45:58;;;;;;;1.73;0.20;;;8.50;1.00;;;;;;5125941;27;20426;-59
2023/12/22 07:48:25;;;;;;;1.67;0.20;;;8.60;1.00;;;;;;5131771;27;20433;-59
2023/12/22 07:50:52;;;;;;;1.70;0.28;;;8.60;1.00;;;;;;5132014;27;20868;-59
2023/12/22 07:53:21;;;;;;;2.67;0.20;;;8.50;1.00;;;;;;5131005;27;20453;-59
2023/12/22 07:55:48;;;;;;;0.50;0.20;;;8.50;1.00;;;;;;5131781;28;20426;-59
2023/12/22 07:58:17;;;;;;;1.13;0.20;;;8.50;1.00;;;;;;5130090;28;20453;-58
2023/12/22 08:00:46;;;;;;;0.95;0.20;;;8.50;1.00;;;;;;5129818;28;20410;-59
2023/12/22 08:03:14;;;;;;;0.77;0.20;;;8.40;1.00;;;;;;5129644;28;20427;-58
2023/12/22 08:05:41;;;;;;;0.95;0.20;;;8.40;1.00;;;;;;5128452;28;20418;-59
2023/12/22 08:08:09;;;;;;;1.00;0.20;;;8.40;1.00;;;;;;5128989;28;20429;-60
2023/12/22 08:10:36;;;;;;;1.80;0.30;;;8.30;1.00;;;;;;5122235;28;20430;-59
2023/12/22 08:13:03;;;;;;;0.50;0.20;;;8.30;22.80;;;;;;5130783;28;20434;-60
2023/12/22 08:15:32;;;;;;;0.90;0.20;;;8.60;22.00;;;;;;5129846;28;20434;-58
2023/12/22 08:17:59;;;;;;;0.80;0.20;;;8.50;17.10;;;;;;5129952;28;20467;-58
2023/12/22 08:20:28;;;;;;;1.30;0.20;;;8.50;18.80;;;;;;5118030;28;20496;-59
2023/12/22 08:22:56;;;;;;;0.60;0.20;;;8.40;28.30;;;;;;5124431;28;20504;-59
2023/12/22 08:25:23;;;;;;;0.77;0.28;;;8.50;27.90;;;;;;5132073;28;20433;-58
2023/12/22 08:27:50;;;;;;;1.27;0.20;;;8.40;49.50;;;;;;5124084;28;20476;-59
2023/12/22 08:30:18;;;;;;;2.70;0.40;;;8.40;58.50;;;;;;5130126;28;20490;-59
2023/12/22 08:32:45;;;;;;;0.77;0.20;;;8.30;47.90;;;;;;5130049;28;20725;-60
2023/12/22 08:35:12;;;;;;;1.10;0.30;;;8.10;60.80;;;;;;5129201;28;20445;-58
2023/12/22 08:37:41;;;;;;;2.63;0.30;;;8.10;78.80;;;;;;5128183;27;20440;-59
2023/12/22 08:40:09;;;;;;;2.75;0.40;;;8.10;80.40;;;;;;5132594;28;20440;-59
2023/12/22 08:42:37;;;;;;;1.27;0.40;;;8.20;52.00;;;;;;5129900;28;20430;-57
2023/12/22 08:45:05;;;;;;;1.60;0.30;;;8.30;58.20;;;;;;5131495;28;20434;-57
2023/12/22 08:47:33;;;;;;;1.88;0.30;;;8.20;42.20;;;;;;5127366;28;20442;-59
2023/12/22 08:50:03;;;;;;;3.67;0.60;;;8.20;34.50;;;;;;5129271;28;20446;-57
2023/12/22 08:52:31;;;;;;;2.20;0.38;;;8.20;22.50;;;;;;5131570;27;20903;-57
2023/12/22 08:54:59;;;;;;;0.98;0.30;;;8.30;19.70;;;;;;5131012;28;21334;-58
2023/12/22 08:57:27;;;;;;;3.40;0.40;;;8.30;12.40;;;;;;5129419;28;20438;-57
2023/12/22 08:59:54;;;;;;;1.60;0.40;;;8.40;1.00;;;;;;5130027;28;20438;-57
2023/12/22 09:02:21;;;;;;;1.43;0.30;;;8.40;1.00;;;;;;5130751;28;20434;-57
2023/12/22 09:04:49;;;;;;;1.20;0.20;;;8.40;1.00;;;;;;5127480;27;20422;-58
2023/12/22 09:07:16;;;;;;;3.00;0.30;;;8.50;1.00;;;;;;5131359;27;20534;-57
2023/12/22 09:09:43;;;;;;;1.48;0.30;;;8.60;1.00;;;;;;5131961;27;20522;-59
2023/12/22 09:12:12;;;;;;;2.10;0.30;;;8.90;1.00;;;;;;5122327;27;20469;-58
2023/12/22 09:14:39;;;;;;;2.30;0.40;;;9.00;1.00;;;;;;5131968;27;21023;-59
2023/12/22 09:17:06;;;;;;;1.60;0.30;;;8.80;1.00;;;;;;5134810;27;20870;-57
2023/12/22 09:19:34;;;;;;;1.30;0.30;;;8.80;1.00;;;;;;5132703;27;20668;-58
2023/12/22 09:22:01;;;;;;;2.63;0.45;;;8.90;1.00;;;;;;5133075;27;21011;-53
2023/12/22 09:24:28;;;;;;;3.30;0.40;;;9.10;1.00;;;;;;5131593;27;20459;-57
2023/12/22 09:27:02;;;;;;;3.78;0.40;;;9.10;1.00;;;;;;5131538;27;20430;-55
2023/12/22 09:29:31;;;;;;;3.17;0.40;;;9.20;1.00;;;;;;5126940;27;20449;-57
2023/12/22 09:31:58;;;;;;;2.30;0.30;;;9.00;1.00;;;;;;5130153;27;20439;-56
2023/12/22 09:34:27;;;;;;;2.83;0.40;;;9.00;1.00;;;;;;5134699;27;20899;-54
2023/12/22 09:36:55;;;;;;;1.27;0.30;;;9.00;99.90;;;;;;5132357;27;20471;-53
2023/12/22 09:39:22;;;;;;;4.68;0.40;;;8.90;99.90;;;;;;5134600;27;20857;-53
2023/12/22 09:41:50;;;;;;;1.97;0.40;;;8.90;99.90;;;;;;5135414;27;20426;-54
2023/12/22 09:44:20;;;;;;;1.20;0.40;;;8.90;99.90;;;;;;5134227;27;20426;-51
2023/12/22 09:46:50;;;;;;;1.73;0.40;;;8.90;99.90;;;;;;5135578;27;20899;-54
2023/12/22 09:49:20;;;;;;;1.90;0.30;;;8.90;99.90;;;;;;5131469;27;20422;-54
2023/12/22 09:51:48;;;;;;;2.33;0.40;;;8.90;99.90;;;;;;5126862;27;20436;-54
2023/12/22 09:54:16;;;;;;;3.10;0.53;;;9.00;1.00;;;;;;5133890;27;20446;-54
2023/12/22 09:56:44;;;;;;;2.35;0.40;;;9.00;99.90;;;;;;5129613;27;20521;-54
2023/12/22 09:59:13;;;;;;;1.80;0.40;;;8.90;99.90;;;;;;5131843;27;20742;-53
2023/12/22 10:01:45;;;;;;;2.40;0.30;;;9.00;99.90;;;;;;5123946;27;20887;-53
2023/12/22 10:04:14;;;;;;;2.22;0.40;;;9.00;99.90;;;;;;5123706;27;20430;-53
2023/12/22 10:06:42;;;;;;;1.38;0.40;;;9.10;99.90;;;;;;5118703;27;20426;-51
2023/12/22 10:09:11;;;;;;;3.78;0.45;;;9.10;99.90;;;;;;5118561;27;20493;-50
2023/12/22 10:11:39;;;;;;;2.13;0.40;;;9.40;1.00;;;;;;5129895;27;20537;-51
2023/12/22 10:14:10;;;;;;;2.50;0.40;;;9.40;99.90;;;;;;5119630;27;20443;-51
2023/12/22 10:16:37;;;;;;;1.40;0.30;;;9.50;1.00;;;;;;5126333;27;20514;-53
2023/12/22 10:19:06;;;;;;;1.80;0.40;;;9.50;1.00;;;;;;5125819;27;20434;-54
2023/12/22 10:21:34;;;;;;;1.43;0.30;;;9.40;1.00;;;;;;5129025;27;20438;-51
2023/12/22 10:24:01;;;;;;;1.65;0.30;;;9.40;1.00;;;;;;5128402;27;20491;-55
2023/12/22 10:26:28;;;;;;;3.20;0.40;;;9.50;1.00;;;;;;5129153;27;20419;-53
2023/12/22 10:28:55;;;;;;;1.90;0.40;;;9.60;1.00;;;;;;5130211;27;20869;-53
2023/12/22 10:31:22;;;;;;;3.35;0.50;;;9.60;1.00;;;;;;5128876;27;20876;-54
2023/12/22 10:33:49;;;;;;;2.58;0.30;;;9.60;1.00;;;;;;5128063;27;20435;-54
2023/12/22 10:36:16;;;;;;;2.40;0.40;;;9.60;25.40;;;;;;5128390;27;20426;-53
2023/12/22 10:38:46;;;;;;;1.27;0.35;;;9.60;1.00;;;;;;5129530;27;20793;-52
2023/12/22 10:41:13;;;;;;;3.35;0.40;;;9.70;99.90;;;;;;5128062;27;20714;-54
2023/12/22 10:43:40;;;;;;;1.67;0.40;;;9.60;99.90;;;;;;5131632;27;20429;-55
2023/12/22 10:46:08;;;;;;;2.30;0.40;;;9.60;1.00;;;;;;5129138;27;20434;-53
2023/12/22 10:48:35;;;;;;;2.70;0.40;;;9.60;1.00;;;;;;5129703;27;20437;-54
2023/12/22 10:51:02;;;;;;;2.30;0.40;;;9.60;69.10;;;;;;5127069;27;20437;-53
2023/12/22 10:53:31;;;;;;;1.60;0.30;;;9.40;28.10;;;;;;5130447;27;20438;-56
2023/12/22 10:55:59;;;;;;;1.83;0.30;;;9.40;1.00;;;;;;5122738;27;20501;-54
2023/12/22 10:58:29;;;;;;;1.70;0.22;;;9.20;99.90;;;;;;5129168;27;20479;-55
2023/12/22 11:00:57;;;;;;;2.60;0.32;;;9.20;1.00;;;;;;5128001;27;20422;-54
2023/12/22 11:03:27;;;;;;;1.85;0.40;;;9.20;1.00;;;;;;5119228;27;20440;-54
2023/12/22 11:05:59;;;;;;;1.30;0.30;;;9.10;1.00;;;;;;5128208;27;20431;-54
2023/12/22 11:08:29;;;;;;;0.65;0.20;;;9.10;1.00;;;;;;5132637;27;20461;-53
2023/12/22 11:11:03;;;;;;;1.23;0.40;;;9.00;1.00;;;;;;5127281;27;20438;-55
2023/12/22 11:13:31;;;;;;;0.70;0.20;;;9.10;1.00;;;;;;5130271;27;20861;-55
2023/12/22 11:15:59;;;;;;;2.25;0.38;;;9.10;1.00;;;;;;5131944;27;20771;-56
2023/12/22 11:18:26;;;;;;;0.90;0.30;;;9.00;1.00;;;;;;5131181;27;20500;-55
2023/12/22 11:20:54;;;;;;;1.20;0.30;;;9.00;1.00;;;;;;5127095;27;20509;-55
2023/12/22 11:23:23;;;;;;;0.90;0.30;;;9.00;1.00;;;;;;5127272;27;20427;-53
2023/12/22 11:25:54;;;;;;;0.90;0.20;;;8.90;1.00;;;;;;5119510;27;20430;-55
2023/12/22 11:28:24;;;;;;;0.80;0.20;;;8.90;1.00;;;;;;5129942;27;20447;-55
2023/12/22 11:30:52;;;;;;;0.60;0.30;;;8.90;1.00;;;;;;5128616;27;20526;-54
2023/12/22 11:33:19;;;;;;;0.65;0.22;;;8.80;18.20;;;;;;5130863;27;20461;-55
2023/12/22 11:35:47;;;;;;;1.80;0.50;;;8.80;6.30;;;;;;5125484;27;20751;-54
2023/12/22 11:38:15;;;;;;;0.40;0.20;;;8.80;21.30;;;;;;5128466;27;20453;-54
2023/12/22 11:40:42;;;;;;;1.30;0.30;;;8.90;19.70;;;;;;5126185;27;20438;-55
2023/12/22 11:43:10;;;;;;;0.80;0.30;;;9.00;43.60;;;;;;5130234;27;20903;-51
2023/12/22 11:45:38;;;;;;;0.40;0.20;;;9.00;22.50;;;;;;5128654;27;20487;-54
2023/12/22 11:48:09;;;;;;;0.80;0.20;;;8.90;10.10;;;;;;5112115;28;20424;-54
2023/12/22 11:50:37;;;;;;;0.60;0.30;;;8.80;32.50;;;;;;5120883;27;20858;-53
2023/12/22 11:53:23;;;;;;;1.80;0.30;;;8.90;62.10;;;;;;5133931;27;20467;-56
2023/12/22 11:56:00;;;;;;;0.80;0.20;;;8.70;49.40;;;;;;5130743;27;20754;-54
2023/12/22 11:58:38;;;;;;;1.60;0.20;;;8.50;64.60;;;;;;5126361;28;20514;-60
2023/12/22 12:01:10;;;;;;;1.70;0.20;;;8.60;99.90;;;;;;5125988;27;20432;-59
2023/12/22 12:03:43;;;;;;;0.50;0.20;;;8.70;62.30;;;;;;5112289;28;20623;-59
2023/12/22 12:06:11;;;;;;;0.43;0.20;;;8.60;84.90;;;;;;5124562;28;20498;-59
2023/12/22 12:08:38;;;;;;;0.50;0.20;;;8.50;96.20;;;;;;5132046;28;20457;-58
2023/12/22 12:11:06;;;;;;;0.50;0.20;;;8.60;99.90;;;;;;5123489;28;20881;-59
2023/12/22 12:13:34;;;;;;;0.70;0.30;;;8.60;99.90;;;;;;5129969;28;20468;-57
2023/12/22 12:16:02;;;;;;;0.70;0.20;;;8.70;99.90;;;;;;5130122;28;20437;-58
2023/12/22 12:18:32;;;;;;;1.40;0.20;;;8.70;91.90;;;;;;5131741;28;20479;-58
2023/12/22 12:20:59;;;;;;;1.30;0.20;;;8.80;99.90;;;;;;5127005;28;20533;-58
2023/12/22 12:23:27;;;;;;;0.50;0.20;;;8.80;76.00;;;;;;5130138;28;20880;-58
2023/12/22 12:25:55;;;;;;;0.60;0.20;;;8.80;80.60;;;;;;5130532;28;20440;-58
2023/12/22 12:28:26;;;;;;;0.40;0.20;;;8.80;78.60;;;;;;5131789;28;20856;-51
2023/12/22 12:31:00;;;;;;;0.47;0.20;;;8.70;88.80;;;;;;5129264;28;20430;-54
2023/12/22 12:33:27;;;;;;;0.60;0.10;;;8.70;87.50;;;;;;5125217;27;20466;-54
2023/12/22 12:35:58;;;;;;;0.70;0.30;;;8.60;77.50;;;;;;5130019;27;21408;-55
2023/12/22 12:38:46;;;;;;;1.10;0.20;;;8.50;97.30;;;;;;5131746;27;20437;-53
2023/12/22 12:41:17;;;;;;;0.98;0.40;;;8.60;99.90;;;;;;5123679;27;20594;-51
2023/12/22 12:43:44;;;;;;;0.50;0.20;;;8.50;99.90;;;;;;5131502;27;20434;-54
2023/12/22 12:46:11;;;;;;;1.30;0.20;;;8.50;99.80;;;;;;5136413;27;20486;-53
2023/12/22 12:48:38;;;;;;;0.70;0.30;;;8.40;99.90;;;;;;5136804;27;20418;-54
2023/12/22 12:51:08;;;;;;;0.50;0.20;;;8.40;99.90;;;;;;5128285;27;20436;-53
2023/12/22 12:53:37;;;;;;;1.30;0.20;;;8.40;99.90;;;;;;5122264;27;20430;-54
2023/12/22 12:56:04;;;;;;;0.60;0.20;;;8.60;99.90;;;;;;5133166;27;20438;-58
2023/12/22 12:58:32;;;;;;;0.60;0.20;;;8.50;99.90;;;;;;5137945;27;20430;-59
2023/12/22 13:01:11;;;;;;;0.40;0.20;;;8.50;99.90;;;;;;5135180;27;20443;-58
2023/12/22 13:03:54;;;;;;;1.10;0.10;;;8.40;99.90;;;;;;5137290;27;20892;-59
2023/12/22 13:06:22;;;;;;;0.90;0.40;;;8.40;99.90;;;;;;5126659;27;20437;-57
2023/12/22 13:08:50;;;;;;;0.40;0.20;;;8.40;99.90;;;;;;5127157;27;20861;-58